Time;durP1;ratioP1;P1;durP2;ratioP2;P2;SDS_P1;SDS_P2;PMS_P1;PMS_P2;Temp;Humidity;BMP_temperature;BMP_pressure;BME280_temperature;BME280_humidity;BME280_pressure;Samples;Min_cycle;Max_cycle;Signal;HPM_P1;HPM_P2
2022/09/10 00:01:35;;;;;;;1.23;1.00;;;18.50;89.10;;;18.92;56.90;98520.00;5021155;28;118948;-84
2022/09/10 00:04:06;;;;;;;6.13;1.47;;;18.50;89.40;;;18.91;56.89;98515.63;5017218;27;124312;-82
2022/09/10 00:06:34;;;;;;;1.60;1.20;;;18.50;89.80;;;18.92;57.02;98510.81;5012329;28;124474;-80
2022/09/10 00:09:00;;;;;;;1.50;1.17;;;18.50;90.00;;;18.93;57.25;98507.63;5016741;27;119256;-82
2022/09/10 00:11:31;;;;;;;3.67;1.30;;;18.50;90.20;;;18.91;57.77;98510.00;5015122;28;119569;-82
2022/09/10 00:14:00;;;;;;;1.77;1.20;;;18.50;90.50;;;18.92;57.94;98500.41;5012557;28;124169;-81
2022/09/10 00:16:27;;;;;;;4.00;1.50;;;18.50;90.70;;;18.92;57.83;98497.63;5014003;28;124563;-83
2022/09/10 00:18:56;;;;;;;4.70;1.63;;;18.50;90.80;;;18.92;57.88;98492.03;5018697;28;119428;-82
2022/09/10 00:21:22;;;;;;;2.00;1.27;;;18.50;90.80;;;18.90;57.94;98491.59;5008651;27;119094;-81
2022/09/10 00:23:49;;;;;;;3.63;1.40;;;18.50;90.90;;;18.89;58.25;98492.78;5010614;28;124691;-83
2022/09/10 00:26:22;;;;;;;2.93;1.27;;;18.50;91.00;;;18.90;57.95;98491.59;5017732;27;123243;-84
2022/09/10 00:28:51;;;;;;;1.30;1.00;;;18.50;91.10;;;18.88;58.07;98487.53;5021700;27;120288;-84
2022/09/10 00:31:20;;;;;;;1.63;1.10;;;18.40;91.10;;;18.89;58.14;98483.56;5017337;27;120351;-85
2022/09/10 00:33:49;;;;;;;2.03;1.13;;;18.40;91.20;;;18.92;58.14;98494.03;5015797;27;124074;-84
2022/09/10 00:36:32;;;;;;;3.27;1.40;;;18.50;91.30;;;18.90;58.37;98497.19;5012758;28;123879;-85
2022/09/10 00:39:02;;;;;;;1.87;1.37;;;18.40;91.50;;;18.88;58.51;98493.94;5016085;28;121110;-85
2022/09/10 00:41:29;;;;;;;1.93;1.10;;;18.40;91.60;;;18.89;58.60;98489.97;5020274;28;118984;-84
2022/09/10 00:44:07;;;;;;;1.97;1.23;;;18.40;91.60;;;18.89;58.51;98494.78;5019695;28;124264;-83
2022/09/10 00:46:49;;;;;;;1.70;1.10;;;18.40;91.60;;;18.91;58.52;98487.63;5005962;28;123262;-83
2022/09/10 00:49:26;;;;;;;3.57;1.17;;;18.40;91.70;;;18.94;58.67;98495.25;5013320;28;118677;-83
2022/09/10 00:51:53;;;;;;;2.60;1.30;;;18.40;91.80;;;18.90;58.21;98497.19;5020349;28;119077;-83
2022/09/10 00:54:23;;;;;;;1.93;1.03;;;18.40;91.60;;;18.85;57.96;98503.09;5015985;28;123314;-83
2022/09/10 00:56:53;;;;;;;1.63;1.20;;;18.40;91.50;;;18.80;57.89;98492.22;5013899;28;123714;-84
2022/09/10 00:59:22;;;;;;;2.27;1.07;;;18.40;91.40;;;18.77;57.92;98493.75;5023616;28;119143;-81
2022/09/10 01:01:49;;;;;;;2.27;1.17;;;18.40;91.40;;;18.75;58.08;98490.56;5003861;27;118935;-82
2022/09/10 01:04:15;;;;;;;1.70;1.30;;;18.30;91.30;;;18.74;57.80;98496.50;5011497;28;124219;-81
2022/09/10 01:06:44;;;;;;;3.47;0.90;;;18.40;91.40;;;18.74;58.16;98490.88;5018136;28;123608;-86
2022/09/10 01:09:13;;;;;;;1.73;1.20;;;18.30;91.50;;;18.74;58.27;98497.31;5008936;27;119640;-80
2022/09/10 01:12:29;;;;;;;0.90;0.80;;;18.30;91.50;;;18.73;57.89;98495.69;5024112;27;118321;-82
2022/09/10 01:15:02;;;;;;;1.97;1.27;;;18.30;91.60;;;18.73;57.96;98504.06;5007258;27;123648;-83
2022/09/10 01:17:57;;;;;;;1.00;0.90;;;18.40;91.50;;;18.73;57.97;98500.47;5010315;27;123907;-85
2022/09/10 01:20:39;;;;;;;3.10;1.10;;;18.30;91.90;;;18.75;58.49;98503.72;5017134;27;119450;-84
2022/09/10 01:23:40;;;;;;;1.77;0.90;;;18.30;91.60;;;18.76;58.20;98496.97;5017247;27;119293;-81
2022/09/10 01:26:19;;;;;;;3.80;1.00;;;18.30;91.70;;;18.80;58.44;98497.81;5023493;27;124249;-84
2022/09/10 01:28:50;;;;;;;1.20;1.00;;;18.30;91.80;;;18.83;58.45;98502.66;5019498;27;124001;-85
2022/09/10 01:31:30;;;;;;;3.17;1.17;;;18.40;91.90;;;18.84;58.39;98498.69;5024059;27;119376;-84
2022/09/10 01:34:31;;;;;;;2.73;1.07;;;18.40;91.90;;;18.83;58.40;98502.66;5011689;27;119133;-85
2022/09/10 01:37:07;;;;;;;1.97;1.00;;;18.40;91.90;;;18.86;58.08;98501.94;5023622;27;123852;-85
2022/09/10 01:39:34;;;;;;;2.60;1.20;;;18.40;91.80;;;18.86;58.23;98507.53;5012291;27;124178;-84
2022/09/10 01:42:00;;;;;;;1.70;1.00;;;18.40;91.80;;;18.85;57.90;98505.09;5009776;28;118610;-83
2022/09/10 01:44:46;;;;;;;1.40;0.93;;;18.40;91.70;;;18.80;58.03;98509.00;5008082;28;118910;-83
2022/09/10 01:47:34;;;;;;;1.63;1.00;;;18.40;91.70;;;18.80;57.95;98503.41;5028720;27;123885;-82
2022/09/10 01:50:26;;;;;;;1.20;0.90;;;18.40;91.70;;;18.77;57.89;98492.97;5023756;27;123827;-83
2022/09/10 01:53:32;;;;;;;0.90;0.80;;;18.40;91.80;;;18.75;58.02;98500.91;5024755;27;119439;-84
2022/09/10 01:56:52;;;;;;;0.90;0.80;;;18.40;91.70;;;18.68;57.93;98501.59;5024683;27;119174;-83
2022/09/10 01:59:49;;;;;;;1.20;1.07;;;18.30;91.60;;;18.67;58.07;98493.56;5000982;27;123460;-84
2022/09/10 02:02:22;;;;;;;2.07;0.93;;;18.30;91.70;;;18.69;58.22;98488.41;5011215;27;124042;-83
2022/09/10 02:04:51;;;;;;;2.73;1.10;;;18.30;91.80;;;18.68;58.47;98489.59;5010736;28;119343;-84
2022/09/10 02:07:21;;;;;;;2.70;1.10;;;18.30;91.90;;;18.69;58.58;98492.00;5016686;27;118858;-86
2022/09/10 02:09:50;;;;;;;1.63;0.97;;;18.30;92.00;;;18.71;58.66;98491.63;5010724;27;124425;-86
2022/09/10 02:12:20;;;;;;;1.30;0.90;;;18.30;92.00;;;18.73;58.54;98492.88;5010226;27;124022;-86
2022/09/10 02:14:55;;;;;;;2.93;1.00;;;18.30;92.00;;;18.74;58.51;98499.28;5026602;27;120562;-85
2022/09/10 02:17:29;;;;;;;4.00;1.13;;;18.30;92.20;;;18.73;58.64;98492.88;5010293;27;120107;-85
2022/09/10 02:19:57;;;;;;;3.17;1.00;;;18.30;92.20;;;18.71;58.78;98491.63;4997076;28;123151;-84
2022/09/10 02:22:24;;;;;;;3.47;1.40;;;18.20;92.20;;;18.68;59.13;98489.59;5004630;27;123617;-83
2022/09/10 02:24:51;;;;;;;1.37;1.00;;;18.20;92.50;;;18.67;59.22;98493.56;5013926;27;118785;-85
2022/09/10 02:27:18;;;;;;;2.63;1.30;;;18.20;92.50;;;18.60;59.69;98494.25;5010883;27;118453;-85
2022/09/10 02:29:44;;;;;;;1.80;1.20;;;18.20;92.70;;;18.57;59.95;98494.22;5009803;27;124157;-86
2022/09/10 02:32:12;;;;;;;2.40;1.10;;;18.10;93.00;;;18.52;59.95;98490.53;5020266;27;123836;-86
2022/09/10 02:34:39;;;;;;;1.17;0.90;;;18.10;93.00;;;18.49;59.98;98488.47;5005942;28;119530;-86
2022/09/10 02:37:05;;;;;;;1.40;1.20;;;18.10;93.00;;;18.49;60.21;98482.06;5012861;27;119529;-85
2022/09/10 02:39:32;;;;;;;1.30;0.90;;;18.00;93.10;;;18.51;60.34;98483.31;5015916;27;124574;-86
2022/09/10 02:41:58;;;;;;;3.93;1.13;;;18.10;93.20;;;18.53;60.16;98488.53;5017026;27;123818;-86
2022/09/10 02:44:27;;;;;;;1.63;1.03;;;18.10;93.20;;;18.50;60.11;98484.50;5019115;27;119351;-86
2022/09/10 02:46:54;;;;;;;2.17;0.90;;;18.10;93.20;;;18.50;60.33;98483.69;5017432;28;118996;-84
2022/09/10 02:49:21;;;;;;;4.73;1.60;;;18.10;93.20;;;18.51;60.18;98479.69;5031459;27;124077;-86
2022/09/10 02:51:49;;;;;;;3.40;1.20;;;18.10;93.20;;;18.51;60.18;98480.53;5024810;27;122955;-86
2022/09/10 02:54:18;;;;;;;2.07;0.90;;;18.10;93.20;;;18.50;60.19;98483.69;5016717;27;119285;-86
2022/09/10 02:56:49;;;;;;;3.97;1.27;;;18.10;93.60;;;18.51;60.01;98485.28;5014576;27;118803;-85
2022/09/10 02:59:17;;;;;;;1.67;1.10;;;18.10;93.30;;;18.52;60.24;98487.72;5019096;27;124165;-86
2022/09/10 03:01:43;;;;;;;6.73;1.87;;;18.10;93.40;;;18.53;60.36;98472.53;5022901;27;124314;-84
2022/09/10 03:04:10;;;;;;;1.50;1.00;;;18.10;93.40;;;18.53;60.60;98472.53;5012687;27;120782;-84
2022/09/10 03:06:37;;;;;;;2.13;1.10;;;18.10;93.40;;;18.51;60.58;98471.31;5023746;28;119543;-84
2022/09/10 03:09:03;;;;;;;1.40;0.93;;;18.10;93.50;;;18.52;60.63;98479.34;5009885;27;124424;-85
2022/09/10 03:11:30;;;;;;;1.87;0.90;;;18.10;93.50;;;18.52;60.56;98473.75;5004682;28;123730;-85
2022/09/10 03:13:57;;;;;;;4.43;1.13;;;18.10;93.60;;;18.53;60.60;98477.34;5010224;27;117510;-84
2022/09/10 03:16:23;;;;;;;1.37;0.93;;;18.10;93.60;;;18.53;60.74;98482.94;5021802;27;118745;-85
2022/09/10 03:18:51;;;;;;;1.00;0.90;;;18.10;93.60;;;18.53;61.05;98475.34;5018542;27;124040;-85
2022/09/10 03:21:20;;;;;;;1.93;1.03;;;18.10;93.60;;;18.55;61.25;98473.00;5010603;27;123839;-85
2022/09/10 03:23:50;;;;;;;1.70;1.03;;;18.10;93.70;;;18.56;60.86;98471.00;5025776;27;118437;-85
2022/09/10 03:26:19;;;;;;;2.57;1.20;;;18.10;93.80;;;18.55;60.88;98467.38;5020863;27;118970;-85
2022/09/10 03:28:46;;;;;;;1.20;0.90;;;18.10;93.80;;;18.55;61.05;98470.19;5016883;27;123989;-85
2022/09/10 03:31:14;;;;;;;2.07;1.20;;;18.10;93.90;;;18.53;60.94;98466.94;5018124;28;123877;-85
2022/09/10 03:33:41;;;;;;;1.90;1.30;;;18.40;94.00;;;18.53;61.02;98472.53;5004501;27;118381;-84
2022/09/10 03:36:11;;;;;;;1.80;1.00;;;18.10;93.80;;;18.52;60.93;98473.75;5021374;27;118920;-85
2022/09/10 03:38:39;;;;;;;1.90;1.00;;;18.10;93.90;;;18.49;61.00;98482.88;5016201;27;124080;-85
2022/09/10 03:41:05;;;;;;;3.40;1.10;;;18.10;93.90;;;18.47;61.00;98464.84;5007912;27;123890;-85
2022/09/10 03:43:32;;;;;;;2.17;1.30;;;18.00;93.90;;;18.46;61.17;98466.84;5020116;28;119158;-86
2022/09/10 03:45:59;;;;;;;2.53;1.13;;;18.00;93.90;;;18.47;61.34;98462.84;5028184;27;119023;-86
2022/09/10 03:48:25;;;;;;;3.63;1.47;;;18.10;94.10;;;18.48;61.33;98467.28;5018974;27;124395;-84
2022/09/10 03:50:52;;;;;;;4.73;1.20;;;18.00;94.10;;;18.48;61.38;98467.28;5007649;27;123936;-85
2022/09/10 03:53:19;;;;;;;1.83;1.10;;;18.00;94.10;;;18.44;61.28;98469.19;5022192;27;120789;-85
2022/09/10 03:55:47;;;;;;;1.10;0.90;;;18.00;94.10;;;18.41;61.39;98469.94;5022445;27;120487;-85
2022/09/10 03:58:16;;;;;;;2.30;1.00;;;18.00;94.10;;;18.40;61.45;98479.50;5011200;27;123964;-86
2022/09/10 04:00:44;;;;;;;2.37;0.97;;;18.00;94.20;;;18.39;61.47;98471.50;5008469;27;123044;-83
2022/09/10 04:03:13;;;;;;;0.90;0.80;;;18.00;94.20;;;18.38;61.54;98473.50;5027085;27;119502;-85
2022/09/10 04:05:44;;;;;;;1.50;1.10;;;17.90;94.20;;;18.35;61.59;98482.63;5022274;27;119273;-85
2022/09/10 04:08:12;;;;;;;1.80;0.93;;;17.90;94.20;;;18.31;61.74;98470.56;5015411;27;122584;-86
2022/09/10 04:10:40;;;;;;;2.67;1.10;;;17.90;94.30;;;18.30;61.70;98471.75;5001888;27;121905;-85
2022/09/10 04:13:08;;;;;;;1.47;0.90;;;17.90;94.30;;;18.29;61.71;98472.91;5017061;28;119290;-84
2022/09/10 04:15:36;;;;;;;1.20;0.90;;;17.90;94.30;;;18.28;61.90;98472.13;5022813;27;118821;-84
2022/09/10 04:18:04;;;;;;;2.60;1.17;;;17.90;94.40;;;18.28;61.82;98462.94;5021554;28;124062;-85
2022/09/10 04:20:32;;;;;;;3.00;1.00;;;17.90;94.40;;;18.28;61.88;98465.72;5015475;27;123772;-85
2022/09/10 04:22:59;;;;;;;1.20;0.90;;;17.80;94.40;;;18.28;62.00;98465.72;4995810;28;118874;-84
2022/09/10 04:25:25;;;;;;;1.97;1.03;;;17.80;94.40;;;18.26;61.90;98474.47;5010528;27;118226;-84
2022/09/10 04:27:52;;;;;;;1.57;0.90;;;17.90;94.50;;;18.25;61.92;98472.88;5029686;27;124439;-85
2022/09/10 04:30:18;;;;;;;2.40;1.10;;;17.80;94.40;;;18.24;61.88;98464.84;5026644;27;124014;-86
2022/09/10 04:32:45;;;;;;;2.77;1.23;;;17.80;94.40;;;18.24;61.97;98476.03;5025474;27;119337;-84
2022/09/10 04:35:14;;;;;;;2.40;1.00;;;17.80;94.50;;;18.22;61.94;98472.81;5027362;27;118872;-86
2022/09/10 04:37:44;;;;;;;6.63;1.30;;;17.80;94.50;;;18.19;61.96;98474.34;5015982;27;124830;-85
2022/09/10 04:41:08;;;;;;;1.87;1.10;;;17.80;94.50;;;18.14;61.89;98485.03;5029083;28;122672;-84
2022/09/10 04:43:36;;;;;;;1.90;1.00;;;17.80;94.50;;;18.10;61.93;98482.16;5016862;27;120603;-85
2022/09/10 04:46:03;;;;;;;1.00;0.90;;;17.70;94.50;;;18.11;62.08;98481.00;4996185;27;120194;-82
2022/09/10 04:48:32;;;;;;;2.50;1.67;;;17.70;94.60;;;18.09;62.14;98481.34;5036236;27;123832;-85
2022/09/10 04:50:59;;;;;;;1.83;1.27;;;17.70;94.60;;;18.08;61.93;98478.91;5039110;27;124179;-83
2022/09/10 04:53:26;;;;;;;1.97;1.23;;;17.70;94.60;;;18.09;62.06;98484.16;5018194;27;119500;-85
2022/09/10 04:55:54;;;;;;;2.20;1.10;;;17.70;94.60;;;18.10;62.08;98487.75;5023291;28;119064;-85
2022/09/10 04:58:21;;;;;;;2.07;1.10;;;17.70;94.60;;;18.11;62.05;98486.59;5024556;27;124009;-85
2022/09/10 05:00:48;;;;;;;1.80;1.10;;;17.80;94.60;;;18.12;62.06;98495.78;5015770;27;124030;-85
2022/09/10 05:03:14;;;;;;;1.70;0.87;;;17.70;94.60;;;18.13;61.96;98491.78;5024862;27;121034;-84
2022/09/10 05:05:46;;;;;;;2.13;1.30;;;17.70;94.60;;;18.15;62.06;98495.03;5008661;27;119026;-85
2022/09/10 05:08:13;;;;;;;1.60;1.00;;;17.70;94.60;;;18.15;62.04;98495.84;5027692;27;123737;-86
2022/09/10 05:10:40;;;;;;;2.57;1.07;;;17.70;94.60;;;18.19;62.00;98501.50;5022045;28;123960;-85
2022/09/10 05:13:08;;;;;;;5.33;1.10;;;17.70;94.70;;;18.20;61.98;98497.53;5031879;28;119285;-83
2022/09/10 05:15:34;;;;;;;1.40;1.03;;;17.70;94.60;;;18.20;61.93;98492.75;5022532;27;119364;-85
2022/09/10 05:18:02;;;;;;;2.00;1.07;;;17.70;94.70;;;18.20;61.83;98497.53;5026859;27;123053;-82
2022/09/10 05:20:30;;;;;;;2.00;1.00;;;17.70;94.60;;;18.17;61.86;98495.47;5011465;27;123057;-84
2022/09/10 05:22:57;;;;;;;1.30;1.00;;;17.70;94.60;;;18.14;61.92;98499.03;5021424;27;119854;-85
2022/09/10 05:25:26;;;;;;;1.63;1.10;;;17.70;94.70;;;18.12;61.90;98502.19;5021209;27;118922;-85
2022/09/10 05:27:54;;;;;;;2.07;1.07;;;17.70;94.70;;;18.10;61.78;98510.91;5008577;27;123887;-85
2022/09/10 05:30:21;;;;;;;1.50;1.00;;;17.70;94.60;;;18.06;61.97;98507.25;5017020;27;124272;-85
2022/09/10 05:32:52;;;;;;;1.07;0.90;;;17.60;94.60;;;18.04;61.97;98501.22;5024533;27;120399;-84
2022/09/10 05:35:19;;;;;;;5.53;1.10;;;17.60;94.60;;;18.00;62.13;98505.94;5009291;27;120155;-85
2022/09/10 05:37:45;;;;;;;1.33;0.90;;;17.60;94.60;;;17.98;62.06;98499.91;5015869;27;124017;-83
2022/09/10 05:40:13;;;;;;;2.90;0.90;;;17.60;94.60;;;17.99;62.17;98497.91;5020815;27;123044;-85
2022/09/10 05:42:40;;;;;;;1.93;1.10;;;17.60;94.70;;;17.98;62.27;98499.91;5023917;27;119383;-85
2022/09/10 05:45:08;;;;;;;3.63;1.00;;;17.60;94.70;;;18.01;62.38;98499.16;5017888;27;119355;-85
2022/09/10 05:47:36;;;;;;;1.83;0.93;;;17.60;94.80;;;18.01;62.33;98493.59;5015636;28;123916;-85
2022/09/10 05:50:04;;;;;;;2.13;1.13;;;17.60;94.80;;;18.01;62.58;98493.59;5027796;27;124405;-86
2022/09/10 05:52:31;;;;;;;3.73;1.77;;;17.60;94.90;;;18.02;62.44;98497.19;5026575;27;118804;-85
2022/09/10 05:54:58;;;;;;;1.30;0.93;;;17.60;94.90;;;18.00;62.48;98491.97;5020578;27;119541;-85
2022/09/10 05:57:26;;;;;;;2.10;1.00;;;17.60;95.00;;;17.98;62.56;98497.13;5017637;28;124113;-85
2022/09/10 05:59:53;;;;;;;2.77;1.20;;;17.70;95.00;;;17.98;62.62;98505.50;5015919;28;124327;-85
2022/09/10 06:02:20;;;;;;;1.33;0.90;;;17.50;95.00;;;17.97;62.71;98501.06;5022917;28;120574;-84
2022/09/10 06:04:47;;;;;;;1.60;1.10;;;17.50;95.00;;;17.96;62.73;98502.25;5022275;28;118366;-83
2022/09/10 06:07:15;;;;;;;1.43;1.07;;;17.50;95.10;;;17.96;62.75;98502.25;5023679;27;124671;-83
2022/09/10 06:09:41;;;;;;;1.07;0.90;;;17.50;95.10;;;17.97;62.88;98500.28;5017754;27;123780;-85
2022/09/10 06:12:08;;;;;;;3.40;1.00;;;17.60;95.20;;;18.00;62.85;98505.13;5015283;27;119363;-85
2022/09/10 06:14:34;;;;;;;3.00;1.10;;;17.60;95.20;;;18.02;62.78;98509.16;5008169;28;119135;-84
2022/09/10 06:17:01;;;;;;;4.33;1.40;;;17.60;95.50;;;18.03;62.72;98510.81;5017983;27;124629;-85
2022/09/10 06:19:28;;;;;;;1.37;0.90;;;17.60;95.20;;;18.04;62.60;98518.00;5016727;27;123792;-85
2022/09/10 06:21:54;;;;;;;1.87;1.10;;;17.60;95.20;;;18.05;62.61;98519.63;5012470;27;120289;-84
2022/09/10 06:24:23;;;;;;;2.13;0.90;;;17.60;95.20;;;18.04;62.50;98518.00;5021187;27;119416;-84
2022/09/10 06:26:49;;;;;;;1.47;1.00;;;17.60;95.20;;;18.06;62.59;98510.06;5011170;27;124074;-84
2022/09/10 06:29:19;;;;;;;1.40;1.03;;;17.80;95.20;;;18.07;62.45;98511.66;5023254;27;123616;-83
2022/09/10 06:31:46;;;;;;;1.07;0.90;;;17.60;95.10;;;18.09;62.47;98505.72;5009933;27;119519;-82
2022/09/10 06:34:13;;;;;;;1.37;1.10;;;17.60;95.10;;;18.11;62.31;98511.75;5010767;27;118878;-83
2022/09/10 06:36:40;;;;;;;1.77;1.23;;;17.60;95.10;;;18.13;62.23;98514.97;5004852;27;125007;-85
2022/09/10 06:39:07;;;;;;;1.03;0.90;;;17.60;95.10;;;18.15;62.17;98520.19;5019173;27;123856;-85
2022/09/10 06:41:34;;;;;;;3.20;1.03;;;17.70;95.10;;;18.15;62.27;98517.41;5021391;27;120365;-86
2022/09/10 06:44:00;;;;;;;2.17;0.90;;;17.70;95.00;;;18.18;61.75;98520.25;5013662;28;118966;-86
2022/09/10 06:46:27;;;;;;;4.27;1.07;;;17.70;95.00;;;18.20;62.02;98522.69;5021555;28;123151;-86
2022/09/10 06:48:59;;;;;;;1.50;1.00;;;17.70;95.00;;;18.24;61.87;98526.34;5019622;27;123899;-85
2022/09/10 06:51:26;;;;;;;2.00;1.07;;;17.70;94.90;;;18.23;61.80;98525.56;5013632;27;119977;-86
2022/09/10 06:53:52;;;;;;;1.33;1.03;;;17.70;94.90;;;18.25;61.88;98533.59;5019186;28;119000;-86
2022/09/10 06:56:19;;;;;;;1.80;1.00;;;17.80;94.90;;;18.24;61.61;98530.00;5033013;27;124159;-86
2022/09/10 06:58:46;;;;;;;2.20;1.00;;;17.70;94.80;;;18.23;61.63;98536.75;5008822;27;124476;-86
2022/09/10 07:01:16;;;;;;;1.27;1.00;;;17.80;94.80;;;18.24;61.46;98532.78;5019669;28;119523;-86
2022/09/10 07:03:44;;;;;;;2.97;1.20;;;17.80;94.70;;;18.26;61.30;98526.81;5016110;27;119047;-84
2022/09/10 07:06:18;;;;;;;2.17;0.90;;;17.80;94.70;;;18.27;61.46;98539.63;5007935;27;124067;-86
2022/09/10 07:08:44;;;;;;;1.63;1.00;;;17.80;94.60;;;18.28;61.33;98538.44;5011272;27;123863;-84
2022/09/10 07:11:13;;;;;;;3.17;1.00;;;17.80;94.60;;;18.27;61.24;98548.81;5015683;27;120337;-85
2022/09/10 07:13:42;;;;;;;3.33;1.10;;;17.80;94.50;;;18.29;61.21;98552.03;5028871;27;119209;-84
2022/09/10 07:16:08;;;;;;;1.27;1.07;;;17.80;94.50;;;18.32;61.25;98551.31;5015915;27;124067;-85
2022/09/10 07:18:38;;;;;;;1.93;1.00;;;17.90;94.60;;;18.39;61.10;98561.00;5019510;27;123837;-86
2022/09/10 07:21:11;;;;;;;6.17;1.10;;;17.90;94.60;;;18.42;61.14;98555.47;5019210;27;118711;-86
2022/09/10 07:23:39;;;;;;;1.77;0.90;;;17.90;94.60;;;18.46;61.11;98567.56;5025095;28;117232;-86
2022/09/10 07:26:09;;;;;;;2.20;1.10;;;18.00;94.60;;;18.49;61.05;98566.00;5014590;28;124108;-86
2022/09/10 07:28:37;;;;;;;2.03;1.00;;;18.00;94.60;;;18.53;60.97;98572.47;5014751;28;124193;-87
2022/09/10 07:31:17;;;;;;;1.10;0.90;;;18.00;94.60;;;18.56;61.08;98571.72;5018356;27;119981;-86
2022/09/10 07:33:45;;;;;;;1.97;0.90;;;18.10;94.60;;;18.61;61.04;98571.41;5015176;28;118932;-87
2022/09/10 07:36:13;;;;;;;1.20;1.00;;;18.60;94.80;;;18.69;61.02;98572.34;5013313;28;123943;-85
2022/09/10 07:38:40;;;;;;;2.93;1.37;;;18.20;94.60;;;18.74;60.80;98581.28;5011966;28;123798;-84
2022/09/10 07:41:10;;;;;;;1.40;0.80;;;18.20;94.50;;;18.79;60.56;98580.19;5013885;27;119096;-84
2022/09/10 07:43:39;;;;;;;1.00;0.80;;;17.30;94.10;;;18.84;60.57;98582.66;5014926;27;119009;-78
2022/09/10 07:46:06;;;;;;;2.67;1.20;;;18.30;94.50;;;18.91;60.67;98594.00;5015366;27;124163;-91
2022/09/10 07:48:33;;;;;;;2.03;1.30;;;18.30;94.40;;;18.96;60.36;98590.06;5022965;27;123474;-86
2022/09/10 07:51:05;;;;;;;7.63;1.00;;;18.40;94.40;;;19.01;60.08;98591.75;5018704;27;119083;-87
2022/09/10 07:53:31;;;;;;;2.20;0.80;;;18.40;94.30;;;19.06;60.10;98597.03;5015353;27;119218;-87
2022/09/10 07:56:06;;;;;;;1.13;1.00;;;18.50;94.30;;;19.10;59.85;98598.72;5017522;27;123994;-84
2022/09/10 07:58:34;;;;;;;1.93;0.80;;;18.60;94.20;;;19.15;59.63;98603.19;5009940;27;124278;-84
2022/09/10 08:01:06;;;;;;;1.63;0.90;;;18.60;94.10;;;19.18;59.59;98594.03;5018004;27;120230;-86
2022/09/10 08:03:32;;;;;;;1.00;0.80;;;18.60;94.00;;;19.23;59.53;98599.31;5021341;27;119897;-83
2022/09/10 08:06:04;;;;;;;2.03;0.90;;;18.70;94.00;;;19.31;59.09;98600.25;5013035;27;123376;-84
2022/09/10 08:08:33;;;;;;;1.50;1.20;;;18.70;93.90;;;19.36;59.19;98597.94;5011237;27;123601;-85
2022/09/10 08:11:11;;;;;;;2.33;1.00;;;18.80;93.90;;;19.38;58.94;98601.16;5011205;27;119492;-87
2022/09/10 08:13:40;;;;;;;1.57;1.20;;;18.80;93.70;;;19.39;58.77;98599.97;5020423;27;119670;-86
2022/09/10 08:16:13;;;;;;;1.20;0.80;;;18.80;93.90;;;19.43;58.80;98606.44;5027955;27;124252;-87
2022/09/10 08:18:42;;;;;;;0.93;0.73;;;18.90;93.60;;;19.50;58.78;98613.34;5020743;27;123617;-87
2022/09/10 08:21:09;;;;;;;2.43;0.90;;;18.90;93.50;;;19.54;58.58;98603.81;5015310;28;119388;-88
2022/09/10 08:23:38;;;;;;;1.83;1.00;;;19.00;93.50;;;19.60;58.66;98607.09;5010718;27;118978;-86
2022/09/10 08:26:07;;;;;;;2.57;0.90;;;19.00;93.50;;;19.64;58.29;98607.97;5019742;27;123227;-84
2022/09/10 08:28:35;;;;;;;4.43;1.57;;;19.10;93.40;;;19.70;57.96;98612.09;5023897;27;121774;-86
2022/09/10 08:31:06;;;;;;;3.20;1.20;;;19.10;93.30;;;19.75;58.01;98603.34;5014665;27;119551;-84
2022/09/10 08:33:34;;;;;;;1.60;1.00;;;19.20;93.30;;;19.82;58.00;98613.84;5028475;27;118150;-85
2022/09/10 08:36:03;;;;;;;2.23;1.20;;;19.20;93.20;;;19.85;57.41;98608.31;5007363;27;123778;-86
2022/09/10 08:38:36;;;;;;;1.67;0.90;;;19.30;93.00;;;19.88;57.32;98609.56;5013840;27;123597;-85
2022/09/10 08:41:12;;;;;;;2.13;1.13;;;19.40;92.90;;;19.93;57.03;98608.38;5017553;27;119129;-76
2022/09/10 08:44:02;;;;;;;2.03;1.00;;;19.40;92.80;;;19.97;56.77;98617.69;5014141;27;119673;-87
2022/09/10 08:46:41;;;;;;;2.90;1.53;;;19.40;92.60;;;20.00;56.66;98608.50;5014123;27;124175;-88
2022/09/10 08:49:37;;;;;;;2.67;1.40;;;19.40;92.50;;;20.08;56.52;98613.81;5011982;27;123969;-84
2022/09/10 08:52:45;;;;;;;1.17;0.80;;;19.50;92.70;;;20.12;56.14;98605.44;5021913;27;119881;-85
2022/09/10 08:55:20;;;;;;;2.13;1.10;;;19.50;92.10;;;20.13;55.42;98607.06;5005337;27;118920;-88
2022/09/10 08:58:02;;;;;;;2.40;1.03;;;19.60;91.70;;;20.11;55.22;98609.44;5009740;27;124074;-87
2022/09/10 09:00:40;;;;;;;2.73;0.87;;;19.60;91.50;;;20.12;55.05;98610.25;5015466;27;123695;-88
2022/09/10 09:03:32;;;;;;;2.20;1.00;;;19.60;91.20;;;20.09;55.06;98606.19;5002138;28;119358;-87
2022/09/10 09:06:06;;;;;;;1.77;1.10;;;19.70;91.10;;;20.09;54.58;98614.63;5013269;27;119020;-89
2022/09/10 09:08:47;;;;;;;2.13;0.93;;;19.70;91.10;;;20.12;54.74;98607.44;5018432;27;122938;-90
2022/09/10 09:11:52;;;;;;;2.33;1.17;;;19.70;91.00;;;20.13;54.75;98601.47;5016148;27;122949;-81
2022/09/10 09:14:52;;;;;;;2.97;1.00;;;19.70;90.90;;;20.23;54.62;98612.00;5030568;27;119626;-80
2022/09/10 09:17:24;;;;;;;6.60;1.53;;;19.80;91.00;;;20.30;53.43;98606.47;5025515;27;119012;-82
2022/09/10 09:20:17;;;;;;;2.23;1.10;;;19.80;90.50;;;20.32;53.28;98613.72;5016064;27;124195;-84
2022/09/10 09:23:08;;;;;;;2.43;1.57;;;19.80;90.20;;;20.29;52.71;98609.69;5025627;27;123272;-88
2022/09/10 09:25:52;;;;;;;5.00;1.10;;;19.80;89.10;;;20.25;52.21;98620.84;5024679;27;119512;-79
2022/09/10 09:28:40;;;;;;;2.70;1.20;;;19.80;88.40;;;20.20;51.35;98621.19;5013223;27;119604;-78
2022/09/10 09:31:22;;;;;;;5.03;1.30;;;19.70;87.60;;;20.18;51.90;98615.16;5015158;27;124128;-86
2022/09/10 09:33:50;;;;;;;2.83;1.57;;;19.80;87.80;;;20.22;51.71;98609.56;5004918;28;122786;-79
2022/09/10 09:36:30;;;;;;;3.90;1.27;;;19.80;87.80;;;20.26;51.60;98619.66;5008632;27;120016;-86
2022/09/10 09:38:57;;;;;;;2.00;1.00;;;19.80;87.60;;;20.32;51.80;98622.94;5026233;27;119144;-81
2022/09/10 09:41:48;;;;;;;1.80;1.00;;;19.90;87.70;;;20.35;51.59;98615.75;5025778;27;123809;-77
2022/09/10 09:44:26;;;;;;;1.50;0.90;;;19.90;87.50;;;20.35;50.62;98626.97;5009898;27;123899;-77
2022/09/10 09:46:52;;;;;;;6.10;1.50;;;19.90;86.50;;;20.29;50.80;98613.28;5010433;28;120292;-77
2022/09/10 09:49:19;;;;;;;3.57;1.30;;;19.90;86.00;;;20.28;50.81;98613.66;5032528;27;120280;-78
2022/09/10 09:51:47;;;;;;;2.40;1.13;;;19.90;86.30;;;20.28;50.88;98610.84;5013520;27;124040;-82
2022/09/10 09:54:28;;;;;;;2.27;1.00;;;19.90;85.90;;;20.25;50.78;98606.00;5021667;27;123769;-77
2022/09/10 09:57:00;;;;;;;3.33;1.10;;;19.90;85.90;;;20.25;50.64;98615.22;5034541;27;119330;-77
2022/09/10 09:59:33;;;;;;;3.07;1.10;;;19.80;85.80;;;20.24;50.85;98610.81;5013553;28;119230;-76
2022/09/10 10:02:14;;;;;;;1.73;1.00;;;19.80;86.10;;;20.28;50.73;98610.84;5019062;27;123830;-76
2022/09/10 10:05:04;;;;;;;4.83;1.10;;;19.90;87.00;;;20.30;50.97;98628.91;5016432;27;123120;-76
2022/09/10 10:07:33;;;;;;;1.80;1.10;;;19.90;86.10;;;20.32;50.66;98600.50;5011061;27;119486;-76
2022/09/10 10:10:02;;;;;;;4.47;1.43;;;19.90;85.90;;;20.33;50.51;98616.13;4991898;27;118880;-77
2022/09/10 10:12:30;;;;;;;3.13;1.03;;;19.90;85.70;;;20.35;50.62;98626.97;5015951;27;124160;-78
2022/09/10 10:14:59;;;;;;;2.33;1.20;;;19.90;85.70;;;20.34;50.71;98606.53;5012260;27;123906;-76
2022/09/10 10:17:36;;;;;;;1.97;1.37;;;19.90;85.70;;;20.38;50.92;98612.19;5022493;27;118978;-74
2022/09/10 10:20:09;;;;;;;2.47;1.00;;;19.90;85.80;;;20.42;50.72;98624.28;5010367;27;118901;-75
2022/09/10 10:22:39;;;;;;;2.03;0.90;;;20.00;85.80;;;20.40;50.73;98610.59;5013325;27;123998;-75
2022/09/10 10:25:35;;;;;;;3.73;1.57;;;20.00;85.60;;;20.39;50.85;98605.38;5020870;27;122753;-75
2022/09/10 10:28:09;;;;;;;3.80;1.30;;;20.00;85.70;;;20.40;50.42;98609.81;5008471;28;119391;-75
2022/09/10 10:30:36;;;;;;;4.17;1.27;;;20.00;85.50;;;20.40;50.78;98610.59;5029480;27;118714;-74
2022/09/10 10:33:03;;;;;;;1.87;1.07;;;20.00;85.50;;;20.41;50.33;98597.38;5003321;28;124073;-74